createdAt,value
2022-12-18T00:00:29.561Z,20.30
2022-12-18T00:02:32.353Z,21.03
2022-12-18T00:04:36.127Z,20.20
2022-12-18T00:06:38.823Z,22.37
2022-12-18T00:08:41.620Z,21.50
2022-12-18T00:10:44.855Z,21.70
2022-12-18T00:12:49.215Z,21.27
2022-12-18T00:14:51.897Z,20.23
2022-12-18T00:16:54.617Z,22.00
2022-12-18T00:19:01.501Z,21.77
2022-12-18T00:21:05.996Z,21.17
2022-12-18T00:23:09.366Z,20.30
2022-12-18T00:25:12.137Z,21.40
2022-12-18T00:27:14.874Z,21.30
2022-12-18T00:29:23.291Z,20.63
2022-12-18T00:31:26.390Z,21.10
2022-12-18T00:33:30.062Z,22.13
2022-12-18T00:35:33.499Z,20.20
2022-12-18T00:37:36.667Z,21.37
2022-12-18T00:39:39.379Z,20.80
2022-12-18T00:41:53.059Z,21.47
2022-12-18T00:43:55.828Z,21.37
2022-12-18T00:46:00.298Z,22.10
2022-12-18T00:48:03.472Z,21.83
2022-12-18T00:50:08.161Z,22.10
2022-12-18T00:52:10.958Z,20.73
2022-12-18T00:54:14.250Z,20.97
2022-12-18T00:56:16.951Z,21.70
2022-12-18T00:58:19.703Z,21.07
2022-12-18T01:00:23.065Z,22.03
2022-12-18T01:02:27.521Z,21.60
2022-12-18T01:04:32.818Z,21.13
2022-12-18T01:06:35.530Z,22.17
2022-12-18T01:08:38.299Z,22.53
2022-12-18T01:10:42.645Z,21.80
2022-12-18T01:12:45.374Z,22.10
2022-12-18T01:14:48.237Z,21.27
2022-12-18T01:16:50.942Z,23.27
2022-12-18T01:18:56.005Z,22.37
2022-12-18T01:20:58.784Z,21.00
2022-12-18T01:23:01.528Z,21.57
2022-12-18T01:25:04.665Z,22.90
2022-12-18T01:27:08.070Z,22.27
2022-12-18T01:29:10.831Z,21.37
2022-12-18T01:31:15.208Z,22.10
2022-12-18T01:33:18.027Z,21.60
2022-12-18T01:35:22.566Z,20.90
2022-12-18T01:37:25.408Z,22.83
2022-12-18T01:39:28.109Z,21.03
2022-12-18T01:41:53.110Z,21.60
2022-12-18T01:43:57.898Z,21.27
2022-12-18T01:46:01.520Z,21.67
2022-12-18T01:48:05.446Z,22.90
2022-12-18T01:50:10.680Z,23.00
2022-12-18T01:52:14.796Z,21.17
2022-12-18T01:54:17.487Z,22.70
2022-12-18T01:56:22.097Z,21.40
2022-12-18T01:58:26.402Z,20.53
2022-12-18T02:00:29.901Z,22.13
2022-12-18T02:02:32.735Z,21.37
2022-12-18T02:04:36.378Z,21.40
2022-12-18T02:06:41.730Z,21.37
2022-12-18T02:08:50.648Z,20.77
2022-12-18T02:10:58.206Z,22.73
2022-12-18T02:13:04.960Z,20.00
2022-12-18T02:15:09.507Z,21.30
2022-12-18T02:17:13.459Z,20.47
2022-12-18T02:19:23.460Z,20.90
2022-12-18T02:21:30.824Z,20.70
2022-12-18T02:23:43.190Z,22.00
2022-12-18T02:26:00.894Z,20.40
2022-12-18T02:28:04.124Z,19.90
2022-12-18T02:30:07.803Z,20.00
2022-12-18T02:32:13.859Z,21.47
2022-12-18T02:34:17.165Z,21.10
2022-12-18T02:36:20.267Z,19.73
2022-12-18T02:38:23.011Z,19.47
2022-12-18T02:40:26.406Z,20.33
2022-12-18T02:42:30.861Z,21.27
2022-12-18T02:44:33.594Z,20.10
2022-12-18T02:46:37.367Z,21.43
2022-12-18T02:48:40.933Z,20.00
2022-12-18T02:50:46.843Z,18.97
2022-12-18T02:52:55.395Z,19.20
2022-12-18T02:55:02.206Z,20.77
2022-12-18T02:57:08.698Z,21.20
2022-12-18T02:59:15.280Z,19.03
2022-12-18T03:01:20.993Z,21.07
2022-12-18T03:03:26.483Z,19.10
2022-12-18T03:05:32.139Z,20.63
2022-12-18T03:07:38.954Z,19.53
2022-12-18T03:09:44.199Z,19.13
2022-12-18T03:12:00.446Z,20.37
2022-12-18T03:14:03.798Z,19.20
2022-12-18T03:16:11.173Z,19.33
2022-12-18T03:18:15.447Z,19.17
2022-12-18T03:20:21.065Z,18.17
2022-12-18T03:22:24.189Z,19.20
2022-12-18T03:24:28.449Z,19.40
2022-12-18T03:26:31.147Z,19.20
2022-12-18T03:28:34.175Z,18.43
2022-12-18T03:30:36.960Z,18.73
2022-12-18T03:32:44.921Z,18.67
2022-12-18T03:34:48.071Z,19.00
2022-12-18T03:36:50.839Z,18.27
2022-12-18T03:38:53.612Z,19.73
2022-12-18T03:41:01.128Z,18.10
2022-12-18T03:43:05.751Z,18.73
2022-12-18T03:45:10.411Z,17.37
2022-12-18T03:47:15.770Z,17.97
2022-12-18T03:49:22.137Z,18.73
2022-12-18T03:51:27.061Z,17.40
2022-12-18T03:53:34.925Z,18.20
2022-12-18T03:55:37.653Z,17.37
2022-12-18T03:57:40.843Z,18.13
2022-12-18T03:59:43.607Z,17.27
2022-12-18T04:01:48.566Z,17.60
2022-12-18T04:03:51.615Z,17.70
2022-12-18T04:05:56.700Z,17.30
2022-12-18T04:07:59.442Z,16.80
2022-12-18T04:10:02.702Z,18.17
2022-12-18T04:12:06.008Z,16.67
2022-12-18T04:14:14.394Z,17.20
2022-12-18T04:16:20.232Z,17.30
2022-12-18T04:18:22.984Z,16.20
2022-12-18T04:20:25.721Z,16.57
2022-12-18T04:22:31.988Z,16.63
2022-12-18T04:24:35.181Z,17.33
2022-12-18T04:26:38.008Z,15.77
2022-12-18T04:28:40.848Z,15.90
2022-12-18T04:30:44.052Z,15.77
2022-12-18T04:32:52.032Z,16.63
2022-12-18T04:34:55.136Z,16.57
2022-12-18T04:36:58.002Z,16.43
2022-12-18T04:39:02.928Z,16.27
2022-12-18T04:41:06.358Z,15.33
2022-12-18T04:43:09.167Z,16.43
2022-12-18T04:45:12.291Z,15.87
2022-12-18T04:47:15.375Z,15.57
2022-12-18T04:49:18.194Z,16.20
2022-12-18T04:51:26.286Z,15.63
2022-12-18T04:53:29.456Z,15.90
2022-12-18T04:55:34.963Z,15.90
2022-12-18T04:57:37.670Z,15.40
2022-12-18T04:59:40.392Z,15.70
2022-12-18T05:01:43.228Z,15.80
2022-12-18T05:03:46.968Z,14.77
2022-12-18T05:05:51.461Z,15.00
2022-12-18T05:07:54.256Z,15.87
2022-12-18T05:09:56.941Z,15.93
2022-12-18T05:12:01.340Z,14.97
2022-12-18T05:14:04.037Z,15.07
2022-12-18T05:16:07.555Z,14.87
2022-12-18T05:18:10.529Z,15.70
2022-12-18T05:20:13.606Z,14.80
2022-12-18T05:22:16.359Z,14.77
2022-12-18T05:24:19.078Z,14.53
2022-12-18T05:26:21.787Z,14.67
2022-12-18T05:28:26.700Z,15.00
2022-12-18T05:30:29.531Z,14.30
2022-12-18T05:32:32.244Z,14.00
2022-12-18T05:34:35.443Z,14.03
2022-12-18T05:36:38.463Z,13.70
2022-12-18T05:38:41.339Z,14.47
2022-12-18T05:40:44.417Z,15.03
2022-12-18T05:42:47.115Z,15.07
2022-12-18T05:44:51.520Z,14.53
2022-12-18T05:46:54.319Z,14.47
2022-12-18T05:48:57.098Z,15.10
2022-12-18T05:51:06.386Z,15.40
2022-12-18T05:53:09.156Z,13.87
2022-12-18T05:55:12.130Z,14.40
2022-12-18T05:57:14.838Z,14.83
2022-12-18T05:59:17.945Z,14.20
2022-12-18T06:01:23.686Z,14.20
2022-12-18T06:03:32.165Z,15.77
2022-12-18T06:05:37.256Z,14.57
2022-12-18T06:07:40.386Z,14.87
2022-12-18T06:09:43.138Z,15.40
2022-12-18T06:11:45.950Z,15.40
2022-12-18T06:13:48.829Z,15.57
2022-12-18T06:15:51.930Z,14.63
2022-12-18T06:17:56.002Z,14.13
2022-12-18T06:19:58.732Z,14.93
2022-12-18T06:22:01.431Z,15.13
2022-12-18T06:24:04.776Z,16.40
2022-12-18T06:26:07.919Z,14.30
2022-12-18T06:28:10.966Z,14.80
2022-12-18T06:30:14.350Z,16.63
2022-12-18T06:32:18.017Z,15.57
2022-12-18T06:34:22.018Z,15.60
2022-12-18T06:36:24.781Z,15.80
2022-12-18T06:38:27.519Z,16.37
2022-12-18T06:40:30.572Z,15.70
2022-12-18T06:42:33.283Z,15.50
2022-12-18T06:44:35.960Z,16.20
2022-12-18T06:46:38.937Z,15.83
2022-12-18T06:48:41.644Z,16.90
2022-12-18T06:50:45.674Z,16.87
2022-12-18T06:52:48.399Z,17.27
2022-12-18T06:54:51.122Z,16.53
2022-12-18T06:56:53.865Z,16.70
2022-12-18T06:58:56.819Z,17.67
2022-12-18T07:01:02.435Z,17.10
2022-12-18T07:03:05.607Z,17.90
2022-12-18T07:05:10.966Z,16.40
2022-12-18T07:07:15.242Z,17.50
2022-12-18T07:09:17.919Z,16.90
2022-12-18T07:11:21.096Z,17.50
2022-12-18T07:13:23.767Z,16.97
2022-12-18T07:15:26.489Z,16.00
2022-12-18T07:17:29.336Z,16.00
2022-12-18T07:19:32.052Z,15.70
2022-12-18T07:21:35.219Z,15.63
2022-12-18T07:23:39.455Z,16.00
2022-12-18T07:25:43.777Z,15.93
2022-12-18T07:27:46.517Z,16.60
2022-12-18T07:29:49.808Z,16.20
2022-12-18T07:31:52.598Z,15.30
2022-12-18T07:33:55.750Z,16.73
2022-12-18T07:35:58.430Z,16.97
2022-12-18T07:38:04.210Z,15.67
2022-12-18T07:40:09.863Z,16.40
2022-12-18T07:42:26.025Z,16.37
2022-12-18T07:44:29.309Z,15.50
2022-12-18T07:46:32.357Z,16.43
2022-12-18T07:48:35.323Z,15.60
2022-12-18T07:50:38.775Z,15.73
2022-12-18T07:52:41.766Z,15.57
2022-12-18T07:54:44.526Z,16.10
2022-12-18T07:56:48.515Z,16.17
2022-12-18T07:58:51.608Z,16.63
2022-12-18T08:00:54.588Z,16.07
2022-12-18T08:02:57.449Z,16.47
2022-12-18T08:05:00.394Z,17.20
2022-12-18T08:07:03.527Z,17.20
2022-12-18T08:09:06.386Z,16.60
2022-12-18T08:11:09.075Z,15.90
2022-12-18T08:13:13.052Z,16.70
2022-12-18T08:15:16.647Z,16.60
2022-12-18T08:17:19.367Z,16.30
2022-12-18T08:19:22.090Z,16.70
2022-12-18T08:21:25.563Z,15.70
2022-12-18T08:23:28.963Z,15.13
2022-12-18T08:25:31.710Z,16.03
2022-12-18T08:27:34.584Z,15.93
2022-12-18T08:29:39.142Z,16.30
2022-12-18T08:31:41.913Z,15.27
2022-12-18T08:33:44.839Z,16.53
2022-12-18T08:35:47.664Z,15.60
2022-12-18T08:37:50.671Z,15.93
2022-12-18T08:39:53.425Z,15.37
2022-12-18T08:42:11.258Z,16.37
2022-12-18T08:44:25.311Z,14.93
2022-12-18T08:46:30.120Z,15.70
2022-12-18T08:48:35.902Z,14.60
2022-12-18T08:50:39.110Z,15.77
2022-12-18T08:52:43.557Z,14.73
2022-12-18T08:54:46.584Z,15.33
2022-12-18T08:56:50.681Z,14.10
2022-12-18T08:58:54.387Z,14.90
2022-12-18T09:01:02.215Z,14.80
2022-12-18T09:03:06.678Z,14.00
2022-12-18T09:05:11.999Z,15.20
2022-12-18T09:07:15.475Z,14.53
2022-12-18T09:09:18.678Z,15.30
2022-12-18T09:11:22.997Z,15.37
2022-12-18T09:13:25.746Z,15.67
2022-12-18T09:15:28.581Z,13.80
2022-12-18T09:17:32.727Z,14.73
2022-12-18T09:19:36.751Z,14.07
2022-12-18T09:21:42.246Z,14.60
2022-12-18T09:23:51.508Z,15.00
2022-12-18T09:25:54.665Z,14.20
2022-12-18T09:27:57.522Z,14.70
2022-12-18T09:30:00.267Z,14.50
2022-12-18T09:32:03.000Z,15.30
2022-12-18T09:34:07.011Z,15.10
2022-12-18T09:36:12.178Z,15.63
2022-12-18T09:38:16.497Z,16.60
2022-12-18T09:40:21.299Z,15.20
2022-12-18T09:42:28.897Z,16.17
2022-12-18T09:44:32.765Z,16.43
2022-12-18T09:46:36.817Z,16.47
2022-12-18T09:48:42.725Z,16.80
2022-12-18T09:50:45.816Z,16.17
2022-12-18T09:52:53.283Z,17.10
2022-12-18T09:54:58.647Z,17.07
2022-12-18T09:57:02.102Z,17.30
2022-12-18T09:59:05.637Z,16.53
2022-12-18T10:01:13.589Z,17.43
2022-12-18T10:03:17.875Z,16.73
2022-12-18T10:05:28.315Z,16.57
2022-12-18T10:07:34.882Z,16.23
2022-12-18T10:09:42.325Z,17.30
2022-12-18T10:11:50.379Z,16.40
2022-12-18T10:13:56.805Z,19.37
2022-12-18T10:16:07.102Z,20.50
2022-12-18T10:18:22.250Z,22.00
2022-12-18T10:20:29.497Z,20.30
2022-12-18T10:22:42.592Z,18.93
2022-12-18T10:24:53.905Z,20.40
2022-12-18T10:26:58.351Z,17.50
2022-12-18T10:29:05.654Z,19.63
2022-12-18T10:31:08.819Z,18.83
2022-12-18T10:33:13.308Z,18.90
2022-12-18T10:35:19.845Z,19.93
2022-12-18T10:37:24.912Z,19.10
2022-12-18T10:39:28.299Z,18.27
2022-12-18T10:41:33.332Z,18.43
2022-12-18T10:43:36.730Z,20.30
2022-12-18T10:45:39.444Z,19.87
2022-12-18T10:47:45.400Z,18.90
2022-12-18T10:49:50.526Z,18.90
2022-12-18T10:51:53.752Z,19.80
2022-12-18T10:53:58.614Z,17.77
2022-12-18T10:56:02.750Z,18.27
2022-12-18T10:58:26.419Z,17.93
2022-12-18T11:00:32.082Z,19.30
2022-12-18T11:02:37.143Z,18.87
2022-12-18T11:04:42.614Z,20.00
2022-12-18T11:06:56.569Z,19.10
2022-12-18T11:09:00.388Z,18.93
2022-12-18T11:11:03.243Z,17.47
2022-12-18T11:13:14.172Z,18.10
2022-12-18T11:15:20.891Z,18.63
2022-12-18T11:17:26.710Z,20.10
2022-12-18T11:19:34.429Z,18.30
2022-12-18T11:21:43.938Z,16.77
2022-12-18T11:23:48.915Z,17.47
2022-12-18T11:25:57.413Z,19.37
2022-12-18T11:28:01.055Z,19.23
2022-12-18T11:30:10.078Z,18.70
2022-12-18T11:32:31.321Z,19.03
2022-12-18T11:34:34.808Z,18.23
2022-12-18T11:36:40.484Z,18.50
2022-12-18T11:38:44.581Z,18.70
2022-12-18T11:40:49.887Z,19.23
2022-12-18T11:42:55.862Z,17.70
2022-12-18T11:45:01.614Z,19.30
2022-12-18T11:47:11.997Z,19.30
2022-12-18T11:49:17.567Z,17.80
2022-12-18T11:51:27.392Z,17.47
2022-12-18T11:53:32.378Z,19.00
2022-12-18T11:55:39.641Z,19.50
2022-12-18T11:57:46.445Z,18.10
2022-12-18T11:59:53.430Z,17.60
2022-12-18T12:01:57.958Z,18.00
2022-12-18T12:04:10.954Z,18.60
2022-12-18T12:06:17.901Z,17.90
2022-12-18T12:08:24.205Z,18.13
2022-12-18T12:10:34.526Z,17.40
2022-12-18T12:12:49.299Z,17.70
2022-12-18T12:14:55.855Z,18.20
2022-12-18T12:17:01.237Z,17.87
2022-12-18T12:19:15.498Z,16.30
2022-12-18T12:21:22.494Z,18.30
2022-12-18T12:23:30.970Z,18.30
2022-12-18T12:25:37.802Z,23.43
2022-12-18T12:27:45.454Z,19.57
2022-12-18T12:29:52.863Z,19.03
2022-12-18T12:32:03.107Z,16.63
2022-12-18T12:34:10.451Z,21.40
2022-12-18T12:36:17.544Z,21.20
2022-12-18T12:38:23.565Z,19.93
2022-12-18T12:43:06.072Z,19.70
2022-12-18T12:45:11.527Z,18.83
2022-12-18T12:47:19.820Z,18.70
2022-12-18T12:49:24.004Z,17.37
2022-12-18T12:51:27.779Z,16.90
2022-12-18T12:53:35.152Z,18.27
2022-12-18T12:55:39.714Z,17.10
2022-12-18T12:57:45.648Z,17.80
2022-12-18T12:59:50.565Z,18.00
2022-12-18T13:01:56.784Z,16.57
2022-12-18T13:04:21.674Z,16.13
2022-12-18T13:06:32.142Z,17.60
2022-12-18T13:08:54.788Z,16.60
2022-12-18T13:11:13.637Z,17.33
2022-12-18T13:13:17.889Z,16.07
2022-12-18T13:15:30.332Z,17.50
2022-12-18T13:17:35.060Z,17.23
2022-12-18T13:19:38.312Z,16.10
2022-12-18T13:21:41.988Z,17.47
2022-12-18T13:23:46.963Z,16.17
2022-12-18T13:25:50.415Z,17.10
2022-12-18T13:28:01.866Z,17.40
2022-12-18T13:30:13.251Z,17.97
2022-12-18T13:32:22.853Z,16.57
2022-12-18T13:36:49.768Z,16.10
2022-12-18T13:39:23.307Z,15.90
2022-12-18T13:41:30.161Z,17.40
2022-12-18T13:43:39.775Z,16.63
2022-12-18T13:45:46.093Z,17.10
2022-12-18T13:47:50.375Z,15.70
2022-12-18T13:49:53.541Z,16.70
2022-12-18T13:51:56.962Z,17.40
2022-12-18T13:54:01.451Z,16.87
2022-12-18T13:56:05.683Z,17.10
2022-12-18T13:58:08.729Z,16.27
2022-12-18T14:00:26.029Z,17.60
2022-12-18T14:02:30.316Z,16.67
2022-12-18T14:04:33.887Z,16.77
2022-12-18T14:06:37.089Z,16.30
2022-12-18T14:08:41.817Z,16.10
2022-12-18T14:10:48.370Z,16.00
2022-12-18T14:13:00.700Z,15.57
2022-12-18T14:15:08.685Z,15.60
2022-12-18T14:17:12.424Z,15.50
2022-12-18T14:19:19.572Z,15.67
2022-12-18T14:21:26.313Z,16.30
2022-12-18T14:23:31.721Z,15.13
2022-12-18T14:25:34.570Z,16.37
2022-12-18T14:27:39.143Z,14.97
2022-12-18T14:29:44.998Z,15.77
2022-12-18T14:31:47.809Z,15.57
2022-12-18T14:33:52.599Z,15.13
2022-12-18T14:35:57.531Z,16.40
2022-12-18T14:38:13.469Z,15.57
2022-12-18T14:40:16.728Z,15.43
2022-12-18T14:42:19.483Z,17.03
2022-12-18T14:44:28.583Z,15.40
2022-12-18T14:46:39.925Z,16.30
2022-12-18T14:48:43.047Z,14.80
2022-12-18T14:50:45.966Z,15.40
2022-12-18T14:52:52.206Z,16.07
2022-12-18T14:54:55.031Z,15.47
2022-12-18T14:56:59.817Z,16.30
2022-12-18T14:59:03.304Z,15.67
2022-12-18T15:01:06.625Z,15.73
2022-12-18T15:03:10.985Z,14.63
2022-12-18T15:05:19.544Z,15.30
2022-12-18T15:07:23.731Z,15.73
2022-12-18T15:09:27.461Z,15.77
2022-12-18T15:11:35.674Z,15.77
2022-12-18T15:13:38.734Z,15.03
2022-12-18T15:15:50.700Z,15.77
2022-12-18T15:17:59.131Z,14.90
2022-12-18T15:20:04.520Z,14.90
2022-12-18T15:22:14.131Z,14.60
2022-12-18T15:24:19.544Z,15.20
2022-12-18T15:26:23.371Z,15.30
2022-12-18T15:28:27.220Z,15.40
2022-12-18T15:30:30.091Z,15.10
2022-12-18T15:32:32.877Z,14.50
2022-12-18T15:34:37.136Z,15.57
2022-12-18T15:36:41.769Z,15.90
2022-12-18T15:38:48.320Z,15.87
2022-12-18T15:40:51.490Z,15.70
2022-12-18T15:43:09.126Z,14.93
2022-12-18T15:45:13.747Z,15.17
2022-12-18T15:47:16.619Z,16.00
2022-12-18T15:49:19.706Z,16.10
2022-12-18T15:51:24.882Z,15.57
2022-12-18T15:53:31.743Z,14.90
2022-12-18T15:55:45.400Z,15.40
2022-12-18T15:57:50.911Z,15.60
2022-12-18T15:59:57.334Z,14.70
2022-12-18T16:02:01.455Z,16.07
2022-12-18T16:04:06.068Z,14.97
2022-12-18T16:06:11.640Z,15.57
2022-12-18T16:08:16.100Z,15.33
2022-12-18T16:10:22.632Z,16.57
2022-12-18T16:12:25.927Z,16.10
2022-12-18T16:14:29.713Z,15.27
2022-12-18T16:16:34.408Z,15.50
2022-12-18T16:18:37.135Z,16.40
2022-12-18T16:20:40.412Z,15.33
2022-12-18T16:22:43.373Z,15.37
2022-12-18T16:24:46.395Z,16.10
2022-12-18T16:26:52.579Z,15.80
2022-12-18T16:29:00.084Z,15.40
2022-12-18T16:31:03.608Z,15.53
2022-12-18T16:33:07.601Z,16.10
2022-12-18T16:35:12.390Z,15.50
2022-12-18T16:37:16.692Z,16.70
2022-12-18T16:39:20.098Z,15.20
2022-12-18T16:41:34.510Z,15.80
2022-12-18T16:43:40.636Z,17.40
2022-12-18T16:45:44.884Z,16.60
2022-12-18T16:47:47.884Z,16.63
2022-12-18T16:49:52.858Z,16.60
2022-12-18T16:52:05.055Z,18.50
2022-12-18T16:54:13.549Z,17.33
2022-12-18T16:56:25.061Z,17.60
2022-12-18T16:58:28.337Z,17.13
2022-12-18T17:00:32.788Z,17.77
2022-12-18T17:02:36.882Z,17.90
2022-12-18T17:04:39.970Z,17.23
2022-12-18T17:06:43.952Z,19.07
2022-12-18T17:08:46.655Z,19.40
2022-12-18T17:10:53.528Z,18.53
2022-12-18T17:12:58.451Z,18.63
2022-12-18T17:15:01.241Z,16.97
2022-12-18T17:17:20.894Z,18.37
2022-12-18T17:19:25.280Z,18.40
2022-12-18T17:21:28.734Z,19.30
2022-12-18T17:23:33.764Z,18.90
2022-12-18T17:25:40.786Z,18.93
2022-12-18T17:27:45.832Z,18.00
2022-12-18T17:29:53.969Z,19.23
2022-12-18T17:32:00.158Z,18.30
2022-12-18T17:34:05.150Z,18.43
2022-12-18T17:36:08.749Z,18.47
2022-12-18T17:38:15.250Z,19.20
2022-12-18T17:40:18.230Z,19.30
2022-12-18T17:42:24.198Z,18.40
2022-12-18T17:44:31.206Z,17.53
2022-12-18T17:46:36.745Z,18.37
2022-12-18T17:48:40.775Z,18.40
2022-12-18T17:50:45.848Z,19.30
2022-12-18T17:52:48.693Z,19.07
2022-12-18T17:54:51.413Z,19.20
2022-12-18T17:56:54.161Z,19.30
2022-12-18T17:58:57.276Z,18.80
2022-12-18T18:01:01.090Z,19.40
2022-12-18T18:03:04.535Z,19.20
2022-12-18T18:05:07.599Z,20.07
2022-12-18T18:07:16.622Z,18.80
2022-12-18T18:09:19.986Z,18.90
2022-12-18T18:11:34.824Z,18.50
2022-12-18T18:13:49.955Z,18.50
2022-12-18T18:15:57.659Z,19.00
2022-12-18T18:18:02.157Z,17.50
2022-12-18T18:20:06.726Z,19.20
2022-12-18T18:22:11.092Z,19.57
2022-12-18T18:24:15.919Z,18.17
2022-12-18T18:26:18.649Z,18.37
2022-12-18T18:28:21.559Z,18.00
2022-12-18T18:30:24.696Z,18.43
2022-12-18T18:32:27.602Z,19.40
2022-12-18T18:34:31.446Z,19.10
2022-12-18T18:36:34.467Z,19.60
2022-12-18T18:38:48.082Z,19.80
2022-12-18T18:41:01.380Z,18.67
2022-12-18T18:43:04.779Z,18.63
2022-12-18T18:45:09.979Z,18.70
2022-12-18T18:47:14.132Z,20.00
2022-12-18T18:49:17.048Z,21.90
2022-12-18T18:51:21.148Z,20.63
2022-12-18T18:53:24.682Z,21.20
2022-12-18T18:55:27.630Z,20.50
2022-12-18T18:57:31.693Z,21.20
2022-12-18T18:59:34.717Z,20.00
2022-12-18T19:01:38.222Z,20.17
2022-12-18T19:03:41.475Z,20.50
2022-12-18T19:05:47.518Z,20.60
2022-12-18T19:07:50.479Z,20.27
2022-12-18T19:09:54.158Z,20.43
2022-12-18T19:12:08.279Z,21.13
2022-12-18T19:14:14.007Z,20.03
2022-12-18T19:16:17.377Z,19.80
2022-12-18T19:18:21.021Z,19.57
2022-12-18T19:20:23.807Z,19.83
2022-12-18T19:22:26.651Z,19.07
2022-12-18T19:24:29.839Z,19.17
2022-12-18T19:26:34.563Z,19.30
2022-12-18T19:28:37.410Z,20.13
2022-12-18T19:30:43.597Z,19.40
2022-12-18T19:32:46.699Z,20.10
2022-12-18T19:34:50.222Z,18.10
2022-12-18T19:36:59.515Z,19.50
2022-12-18T19:39:03.172Z,19.43
2022-12-18T19:41:06.751Z,18.30
2022-12-18T19:43:13.009Z,19.90
2022-12-18T19:45:16.468Z,19.27
2022-12-18T19:47:25.134Z,19.33
2022-12-18T19:49:33.410Z,19.13
2022-12-18T19:51:38.903Z,19.23
2022-12-18T19:53:46.086Z,19.30
2022-12-18T19:55:49.291Z,19.90
2022-12-18T19:57:53.476Z,19.50
2022-12-18T19:59:56.553Z,19.97
2022-12-18T20:01:59.700Z,18.60
2022-12-18T20:04:06.595Z,18.67
2022-12-18T20:06:12.409Z,17.70
2022-12-18T20:08:16.568Z,19.47
2022-12-18T20:10:19.375Z,17.73
2022-12-18T20:12:25.751Z,20.30
2022-12-18T20:14:31.072Z,18.43
2022-12-18T20:16:36.146Z,19.23
2022-12-18T20:18:40.307Z,18.87
2022-12-18T20:20:45.513Z,19.70
2022-12-18T20:22:50.147Z,19.67
2022-12-18T20:24:55.930Z,18.20
2022-12-18T20:27:01.566Z,19.50
2022-12-18T20:29:05.487Z,18.23
2022-12-18T20:31:10.579Z,19.40
2022-12-18T20:33:18.088Z,19.20
2022-12-18T20:35:22.598Z,18.30
2022-12-18T20:37:27.581Z,19.80
2022-12-18T20:39:31.417Z,19.00
2022-12-18T20:41:38.247Z,17.97
2022-12-18T20:43:43.481Z,18.80
2022-12-18T20:45:46.764Z,18.63
2022-12-18T20:48:00.075Z,20.50
2022-12-18T20:50:02.802Z,18.87
2022-12-18T20:52:06.615Z,18.70
2022-12-18T20:54:15.771Z,19.30
2022-12-18T20:56:21.580Z,19.47
2022-12-18T20:58:25.458Z,19.40
2022-12-18T21:00:28.662Z,19.20
2022-12-18T21:02:33.548Z,18.93
2022-12-18T21:04:36.778Z,19.60
2022-12-18T21:06:39.528Z,19.00
2022-12-18T21:08:42.404Z,19.90
2022-12-18T21:10:47.033Z,19.37
2022-12-18T21:12:57.576Z,19.03
2022-12-18T21:15:05.157Z,20.83
2022-12-18T21:17:07.895Z,19.97
2022-12-18T21:19:11.587Z,19.03
2022-12-18T21:21:15.018Z,20.10
2022-12-18T21:23:18.266Z,21.77
2022-12-18T21:25:21.191Z,20.10
2022-12-18T21:27:26.075Z,20.40
2022-12-18T21:29:30.963Z,21.03
2022-12-18T21:31:36.566Z,21.43
2022-12-18T21:33:40.929Z,20.53
2022-12-18T21:35:45.554Z,21.13
2022-12-18T21:37:49.422Z,21.40
2022-12-18T21:39:52.992Z,21.50
2022-12-18T21:42:08.851Z,21.40
2022-12-18T21:44:13.643Z,20.90
2022-12-18T21:46:17.463Z,21.20
2022-12-18T21:48:20.592Z,21.80
2022-12-18T21:50:24.905Z,21.77
2022-12-18T21:52:32.639Z,21.83
2022-12-18T21:54:37.534Z,21.97
2022-12-18T21:56:48.788Z,23.90
2022-12-18T21:58:55.617Z,22.40
2022-12-18T22:01:01.660Z,21.50
2022-12-18T22:03:18.321Z,21.47
2022-12-18T22:05:23.268Z,23.30
2022-12-18T22:07:26.674Z,21.20
2022-12-18T22:09:29.904Z,21.70
2022-12-18T22:11:33.422Z,22.03
2022-12-18T22:13:36.271Z,22.57
2022-12-18T22:15:39.425Z,21.20
2022-12-18T22:17:44.164Z,22.07
2022-12-18T22:19:48.940Z,21.03
2022-12-18T22:21:56.103Z,21.67
2022-12-18T22:23:59.734Z,22.30
2022-12-18T22:26:12.749Z,22.60
2022-12-18T22:28:28.902Z,22.60
2022-12-18T22:30:31.645Z,23.73
2022-12-18T22:32:34.937Z,23.03
2022-12-18T22:34:39.610Z,21.53
2022-12-18T22:36:43.545Z,23.60
2022-12-18T22:38:47.595Z,22.53
2022-12-18T22:40:50.350Z,22.70
2022-12-18T22:42:53.801Z,22.17
2022-12-18T22:44:57.069Z,21.87
2022-12-18T22:47:06.264Z,23.47
2022-12-18T22:49:10.727Z,24.17
2022-12-18T22:51:16.898Z,23.13
2022-12-18T22:53:19.639Z,23.37
2022-12-18T22:55:22.348Z,23.23
2022-12-18T22:57:25.731Z,22.80
2022-12-18T22:59:28.449Z,23.60
2022-12-18T23:01:31.419Z,23.80
2022-12-18T23:03:35.597Z,22.90
2022-12-18T23:05:38.735Z,23.27
2022-12-18T23:07:42.760Z,23.27
2022-12-18T23:09:45.863Z,22.80
2022-12-18T23:11:50.777Z,23.47
2022-12-18T23:13:54.119Z,22.40
2022-12-18T23:16:00.178Z,23.73
2022-12-18T23:18:02.874Z,22.93
2022-12-18T23:20:06.293Z,23.30
2022-12-18T23:22:11.797Z,23.57
2022-12-18T23:24:16.154Z,23.60
2022-12-18T23:26:19.646Z,22.80
2022-12-18T23:28:25.129Z,23.97
2022-12-18T23:30:29.703Z,22.60
2022-12-18T23:32:32.398Z,22.70
2022-12-18T23:34:36.926Z,22.63
2022-12-18T23:36:45.890Z,22.23
2022-12-18T23:38:49.731Z,22.20
2022-12-18T23:40:56.328Z,22.23
2022-12-18T23:42:59.996Z,21.90
2022-12-18T23:45:03.874Z,23.13
2022-12-18T23:47:15.080Z,22.00
2022-12-18T23:49:17.804Z,22.23
2022-12-18T23:51:23.306Z,22.80
2022-12-18T23:53:26.478Z,22.37
2022-12-18T23:55:29.204Z,22.73
2022-12-18T23:57:33.215Z,22.63
2022-12-18T23:59:35.924Z,21.03
